Time;durP1;ratioP1;P1;durP2;ratioP2;P2;SDS_P1;SDS_P2;PMS_P1;PMS_P2;Temp;Humidity;BMP_temperature;BMP_pressure;BME280_temperature;BME280_humidity;BME280_pressure;Samples;Min_cycle;Max_cycle;Signal;HPM_P1;HPM_P2
2021/11/13 00:00:32;;;;;;;49.67;27.35;;;8.30;99.90;;;;;;6272612;22;20012;-76
2021/11/13 00:02:58;;;;;;;48.03;27.05;;;8.30;99.90;;;;;;6271830;22;20015;-76
2021/11/13 00:05:24;;;;;;;55.58;28.02;;;8.40;99.90;;;;;;6273001;22;20609;-76
2021/11/13 00:07:50;;;;;;;50.00;27.40;;;8.30;99.90;;;;;;6244932;22;20015;-76
2021/11/13 00:10:19;;;;;;;51.15;28.10;;;8.40;99.90;;;;;;6245432;22;20343;-76
2021/11/13 00:12:45;;;;;;;48.03;27.95;;;8.40;99.90;;;;;;6270183;22;20447;-76
2021/11/13 00:15:18;;;;;;;50.10;28.73;;;8.40;99.90;;;;;;6243604;22;20008;-76
2021/11/13 00:17:44;;;;;;;48.97;27.67;;;8.40;99.90;;;;;;6269963;22;20095;-76
2021/11/13 00:20:10;;;;;;;53.55;28.98;;;8.40;99.90;;;;;;6272433;22;20051;-76
2021/11/13 00:22:36;;;;;;;52.88;27.88;;;8.40;99.90;;;;;;6272966;22;20049;-76
2021/11/13 00:25:02;;;;;;;58.20;29.33;;;8.40;99.90;;;;;;6271903;22;20348;-76
2021/11/13 00:27:27;;;;;;;54.30;28.42;;;8.50;99.90;;;;;;6272781;22;20019;-76
2021/11/13 00:29:53;;;;;;;50.30;28.45;;;8.40;99.90;;;;;;6247544;22;20833;-76
2021/11/13 00:32:19;;;;;;;51.42;28.20;;;8.40;99.90;;;;;;6275110;22;20101;-76
2021/11/13 00:34:44;;;;;;;55.80;29.98;;;8.70;99.90;;;;;;6272464;22;20012;-76
2021/11/13 00:37:10;;;;;;;59.72;29.77;;;8.40;99.90;;;;;;6272180;22;20008;-76
2021/11/13 00:39:36;;;;;;;52.72;29.58;;;8.40;99.90;;;;;;6273070;22;20087;-76
2021/11/13 00:42:01;;;;;;;54.70;28.27;;;8.40;99.90;;;;;;6270784;22;20011;-76
2021/11/13 00:44:27;;;;;;;51.38;29.27;;;8.40;99.90;;;;;;6272213;22;20019;-76
2021/11/13 00:46:53;;;;;;;50.63;27.92;;;8.40;99.90;;;;;;6271127;22;20097;-76
2021/11/13 00:49:19;;;;;;;50.03;29.10;;;8.60;99.90;;;;;;6246024;22;20012;-76
2021/11/13 00:51:45;;;;;;;53.50;29.25;;;8.40;99.90;;;;;;6248136;22;20115;-76
2021/11/13 00:54:11;;;;;;;51.85;29.02;;;8.40;99.90;;;;;;6274061;22;20015;-76
2021/11/13 00:56:37;;;;;;;48.70;28.75;;;8.40;99.90;;;;;;6273797;22;20332;-75
2021/11/13 00:59:02;;;;;;;51.00;29.92;;;8.40;99.90;;;;;;6272772;22;20165;-76
2021/11/13 01:01:28;;;;;;;55.65;29.50;;;8.40;99.90;;;;;;6245432;22;20008;-76
2021/11/13 01:03:55;;;;;;;54.28;29.40;;;8.60;99.90;;;;;;6273983;22;20016;-76
2021/11/13 01:06:20;;;;;;;50.05;28.95;;;8.50;99.90;;;;;;6272947;22;20122;-76
2021/11/13 01:08:48;;;;;;;52.78;27.70;;;8.50;99.90;;;;;;6247207;22;20119;-76
2021/11/13 01:11:15;;;;;;;44.95;27.45;;;8.60;99.90;;;;;;6272525;22;20036;-76
2021/11/13 01:13:41;;;;;;;49.50;28.20;;;8.40;99.90;;;;;;6273024;22;20018;-76
2021/11/13 01:16:07;;;;;;;48.13;27.98;;;8.40;99.90;;;;;;6245451;22;20012;-76
2021/11/13 01:18:32;;;;;;;48.47;28.17;;;8.80;99.90;;;;;;6272564;22;20440;-76
2021/11/13 01:20:58;;;;;;;50.40;27.80;;;8.40;99.90;;;;;;6271841;22;20343;-76
2021/11/13 01:23:24;;;;;;;46.85;26.52;;;8.40;99.90;;;;;;6273305;22;20022;-76
2021/11/13 01:25:50;;;;;;;56.25;29.70;;;8.40;99.90;;;;;;6273973;22;20030;-77
2021/11/13 01:28:18;;;;;;;51.10;28.85;;;8.40;99.90;;;;;;6248359;22;20016;-76
2021/11/13 01:30:44;;;;;;;50.17;29.02;;;8.60;99.90;;;;;;6272259;22;20117;-76
2021/11/13 01:33:10;;;;;;;49.63;28.73;;;8.40;99.90;;;;;;6246450;22;20015;-77
2021/11/13 01:35:35;;;;;;;50.55;28.08;;;8.30;99.90;;;;;;6247887;22;20093;-77
2021/11/13 01:38:01;;;;;;;45.33;28.23;;;8.60;99.90;;;;;;6273196;22;20050;-77
2021/11/13 01:40:27;;;;;;;56.15;28.38;;;8.40;99.90;;;;;;6273866;22;20015;-77
2021/11/13 01:42:58;;;;;;;47.55;27.58;;;8.40;99.90;;;;;;6273498;22;20020;-77
2021/11/13 01:45:25;;;;;;;49.85;28.23;;;8.50;99.90;;;;;;6247260;22;20090;-77
2021/11/13 01:47:51;;;;;;;51.40;28.70;;;8.60;99.90;;;;;;6246998;22;20054;-78
2021/11/13 01:50:20;;;;;;;46.10;28.17;;;8.40;99.90;;;;;;6247027;22;20090;-77
2021/11/13 01:52:47;;;;;;;50.53;28.55;;;8.60;99.90;;;;;;6273150;22;20008;-77
2021/11/13 01:55:14;;;;;;;48.92;28.17;;;8.40;99.90;;;;;;6274969;22;20427;-77
2021/11/13 01:57:44;;;;;;;50.75;29.23;;;8.40;99.90;;;;;;6246453;22;20016;-77
2021/11/13 02:00:13;;;;;;;58.42;30.00;;;8.50;99.90;;;;;;6271321;22;20015;-77
2021/11/13 02:02:40;;;;;;;51.33;28.27;;;8.40;99.90;;;;;;6272793;22;20016;-77
2021/11/13 02:05:06;;;;;;;45.13;27.02;;;8.50;99.90;;;;;;6273304;22;20038;-76
2021/11/13 02:07:31;;;;;;;48.83;26.95;;;8.50;99.90;;;;;;6247744;22;20397;-77
2021/11/13 02:09:57;;;;;;;49.28;27.25;;;8.50;99.90;;;;;;6247356;22;20019;-77
2021/11/13 02:12:23;;;;;;;42.90;24.77;;;8.50;99.90;;;;;;6247585;22;20047;-77
2021/11/13 02:14:49;;;;;;;41.80;25.48;;;8.80;99.90;;;;;;6221054;22;20332;-77
2021/11/13 02:17:14;;;;;;;42.55;26.05;;;8.50;99.90;;;;;;6246723;22;20018;-77
2021/11/13 02:19:40;;;;;;;44.97;25.55;;;8.50;99.90;;;;;;6221568;22;20012;-77
2021/11/13 02:22:06;;;;;;;44.67;27.05;;;8.60;99.90;;;;;;6222142;22;20340;-77
2021/11/13 02:24:32;;;;;;;39.63;25.10;;;8.60;99.90;;;;;;6246849;22;20361;-77
2021/11/13 02:26:58;;;;;;;45.78;25.83;;;8.50;99.90;;;;;;6246986;22;20066;-77
2021/11/13 02:29:23;;;;;;;41.22;25.45;;;8.50;99.90;;;;;;6246346;22;20050;-77
2021/11/13 02:31:55;;;;;;;44.78;27.10;;;8.60;99.90;;;;;;6250030;22;20116;-77
2021/11/13 02:34:20;;;;;;;38.08;24.98;;;8.60;99.90;;;;;;6250941;22;20031;-77
2021/11/13 02:36:46;;;;;;;40.65;24.80;;;8.60;99.90;;;;;;6225175;22;20011;-77
2021/11/13 02:39:13;;;;;;;38.08;22.92;;;8.60;99.90;;;;;;6251010;22;20490;-77
2021/11/13 02:41:42;;;;;;;41.42;23.08;;;8.60;99.90;;;;;;6250134;22;20019;-77
2021/11/13 02:44:08;;;;;;;39.95;25.17;;;8.60;99.90;;;;;;6251303;22;20020;-77
2021/11/13 02:46:34;;;;;;;37.17;24.17;;;8.60;99.90;;;;;;6249527;22;20016;-77
2021/11/13 02:49:03;;;;;;;39.88;24.05;;;8.60;99.90;;;;;;6246779;22;20007;-77
2021/11/13 02:51:28;;;;;;;35.92;21.65;;;8.60;99.90;;;;;;6246711;22;20043;-77
2021/11/13 02:53:54;;;;;;;40.58;24.45;;;8.60;99.90;;;;;;6246860;22;20065;-77
2021/11/13 02:56:20;;;;;;;37.65;22.95;;;8.70;99.90;;;;;;6220988;22;20375;-77
2021/11/13 02:58:46;;;;;;;33.90;22.63;;;8.60;99.90;;;;;;6247272;22;20069;-77
2021/11/13 03:01:18;;;;;;;36.60;21.70;;;8.70;99.90;;;;;;6245660;22;20061;-77
2021/11/13 03:03:51;;;;;;;33.75;21.27;;;8.60;99.90;;;;;;6246589;22;20014;-76
2021/11/13 03:06:17;;;;;;;29.50;20.15;;;8.70;99.90;;;;;;6221679;22;20027;-77
2021/11/13 03:08:44;;;;;;;30.88;19.40;;;8.70;99.90;;;;;;6273737;22;20019;-77
2021/11/13 03:11:13;;;;;;;30.70;19.88;;;8.70;99.90;;;;;;6246405;22;20018;-77
2021/11/13 03:13:41;;;;;;;28.35;19.30;;;8.70;99.90;;;;;;6246625;22;20011;-77
2021/11/13 03:16:09;;;;;;;26.92;18.75;;;8.70;99.90;;;;;;6246168;22;20061;-77
2021/11/13 03:18:35;;;;;;;29.38;19.13;;;8.70;99.90;;;;;;6246103;22;20428;-77
2021/11/13 03:21:07;;;;;;;28.35;18.90;;;8.70;99.90;;;;;;6246438;22;20424;-77
2021/11/13 03:23:35;;;;;;;27.75;19.42;;;8.80;99.90;;;;;;6221251;22;20019;-77
2021/11/13 03:26:06;;;;;;;26.55;18.27;;;8.80;99.90;;;;;;6221415;22;20012;-77
2021/11/13 03:28:36;;;;;;;27.42;18.38;;;8.70;99.90;;;;;;6221179;22;20069;-77
2021/11/13 03:31:03;;;;;;;27.45;19.13;;;8.80;99.90;;;;;;6220945;22;20137;-77
2021/11/13 03:33:30;;;;;;;26.58;18.23;;;8.80;99.90;;;;;;6220823;22;20011;-77
2021/11/13 03:35:56;;;;;;;28.08;19.13;;;8.80;99.90;;;;;;6246711;22;20026;-77
2021/11/13 03:38:23;;;;;;;31.35;19.48;;;8.80;99.90;;;;;;6246942;22;20091;-77
2021/11/13 03:40:50;;;;;;;29.00;18.77;;;8.90;99.90;;;;;;6220761;22;20016;-77
2021/11/13 03:43:16;;;;;;;30.23;19.25;;;8.80;99.90;;;;;;6220965;22;20043;-77
2021/11/13 03:45:43;;;;;;;27.10;18.95;;;8.80;99.90;;;;;;6220159;22;20015;-77
2021/11/13 03:48:09;;;;;;;33.50;21.08;;;8.80;99.90;;;;;;6246628;22;20054;-77
2021/11/13 03:50:35;;;;;;;28.13;19.52;;;9.00;99.90;;;;;;6246137;22;20011;-77
2021/11/13 03:53:02;;;;;;;30.15;19.83;;;8.80;99.90;;;;;;6245929;22;20021;-77
2021/11/13 03:55:28;;;;;;;29.45;20.23;;;8.90;99.90;;;;;;6220382;22;20019;-77
2021/11/13 03:57:54;;;;;;;32.55;21.27;;;8.80;99.90;;;;;;6246876;22;20019;-77
2021/11/13 04:00:21;;;;;;;29.85;20.88;;;8.90;99.90;;;;;;6245888;22;20190;-77
2021/11/13 04:02:49;;;;;;;33.00;22.02;;;8.90;99.90;;;;;;6220400;22;20015;-78
2021/11/13 04:05:15;;;;;;;27.20;20.25;;;8.90;99.90;;;;;;6220737;22;20534;-78
2021/11/13 04:07:41;;;;;;;32.95;22.20;;;9.00;99.90;;;;;;6247243;22;20011;-78
2021/11/13 04:10:12;;;;;;;37.58;23.58;;;8.90;99.90;;;;;;6246233;22;20023;-79
2021/11/13 04:12:39;;;;;;;34.97;22.33;;;8.90;99.90;;;;;;6272080;22;20019;-78
2021/11/13 04:15:05;;;;;;;33.92;22.85;;;9.00;99.90;;;;;;6271925;22;20016;-78
2021/11/13 04:17:31;;;;;;;37.25;23.83;;;9.00;99.90;;;;;;6271637;22;20012;-78
2021/11/13 04:19:57;;;;;;;37.60;24.58;;;9.00;99.90;;;;;;6271932;22;20031;-78
2021/11/13 04:22:23;;;;;;;37.33;24.70;;;9.00;99.90;;;;;;6246026;22;20347;-78
2021/11/13 04:24:49;;;;;;;38.83;24.10;;;9.00;99.90;;;;;;6271900;22;20011;-78
2021/11/13 04:27:18;;;;;;;39.08;26.35;;;9.10;99.90;;;;;;6245988;22;20018;-78
2021/11/13 04:29:45;;;;;;;41.25;24.73;;;9.10;99.90;;;;;;6246079;22;20016;-78
2021/11/13 04:32:11;;;;;;;41.05;26.30;;;9.10;99.90;;;;;;6270902;22;20030;-79
2021/11/13 04:34:47;;;;;;;36.83;24.40;;;9.10;99.90;;;;;;6246227;22;20094;-78
2021/11/13 04:37:16;;;;;;;42.15;25.70;;;9.10;99.90;;;;;;6272040;22;20301;-79
2021/11/13 04:39:43;;;;;;;36.75;24.58;;;9.20;99.90;;;;;;6271565;22;20008;-78
2021/11/13 04:42:09;;;;;;;40.65;25.70;;;9.10;99.90;;;;;;6271621;22;20043;-78
2021/11/13 04:44:35;;;;;;;37.70;25.23;;;9.10;99.90;;;;;;6245054;22;20015;-78
2021/11/13 04:47:00;;;;;;;45.42;27.48;;;9.20;99.90;;;;;;6271353;22;20475;-78
2021/11/13 04:49:26;;;;;;;35.90;25.15;;;9.20;99.90;;;;;;6272788;22;20012;-78
2021/11/13 04:51:52;;;;;;;43.95;26.23;;;9.20;99.90;;;;;;6273196;22;20086;-78
2021/11/13 04:54:17;;;;;;;42.60;26.38;;;9.20;99.90;;;;;;6271880;22;20042;-78
2021/11/13 04:56:43;;;;;;;37.78;26.00;;;9.30;99.90;;;;;;6272357;22;20127;-78
2021/11/13 04:59:09;;;;;;;40.92;26.42;;;9.20;99.90;;;;;;6273409;22;20087;-78
2021/11/13 05:01:35;;;;;;;39.58;25.95;;;9.30;99.90;;;;;;6270623;22;20011;-78
2021/11/13 05:04:00;;;;;;;44.03;27.40;;;9.20;99.90;;;;;;6271403;22;20012;-78
2021/11/13 05:06:28;;;;;;;42.88;27.42;;;9.20;99.90;;;;;;6273396;22;20407;-78
2021/11/13 05:08:56;;;;;;;41.10;26.80;;;9.20;99.90;;;;;;6247800;22;20022;-79
2021/11/13 05:11:22;;;;;;;50.53;27.40;;;9.20;99.90;;;;;;6222298;22;20019;-78
2021/11/13 05:13:48;;;;;;;39.50;26.75;;;9.20;99.90;;;;;;6248548;22;20004;-78
2021/11/13 05:16:13;;;;;;;48.95;28.40;;;9.30;99.90;;;;;;6247948;22;20299;-78
2021/11/13 05:18:42;;;;;;;45.38;28.45;;;9.30;99.90;;;;;;6274517;22;20016;-79
2021/11/13 05:21:08;;;;;;;45.50;27.92;;;9.30;99.90;;;;;;6247732;22;20026;-78
2021/11/13 05:23:34;;;;;;;44.15;28.52;;;9.30;99.90;;;;;;6247602;22;20012;-79
2021/11/13 05:26:00;;;;;;;43.28;27.48;;;9.30;99.90;;;;;;6247190;22;20506;-79
2021/11/13 05:28:25;;;;;;;45.90;28.85;;;9.30;99.90;;;;;;6247608;22;20008;-79
2021/11/13 05:30:51;;;;;;;49.33;29.35;;;9.30;99.90;;;;;;6247394;22;20012;-79
2021/11/13 05:33:17;;;;;;;46.00;28.67;;;9.30;99.90;;;;;;6274506;22;20007;-78
2021/11/13 05:35:43;;;;;;;49.03;30.15;;;9.30;99.90;;;;;;6222081;22;20016;-78
2021/11/13 05:38:09;;;;;;;54.72;31.05;;;9.30;99.90;;;;;;6246917;22;20039;-79
2021/11/13 05:40:34;;;;;;;52.08;30.42;;;9.40;99.90;;;;;;6221992;22;20012;-81
2021/11/13 05:43:00;;;;;;;35.70;24.70;;;9.30;99.90;;;;;;6222322;22;20016;-78
2021/11/13 05:45:26;;;;;;;55.35;30.83;;;9.40;99.90;;;;;;6245451;22;20012;-78
2021/11/13 05:47:52;;;;;;;49.45;29.77;;;9.30;99.90;;;;;;6244817;22;20090;-77
2021/11/13 05:50:18;;;;;;;56.17;32.58;;;9.40;99.90;;;;;;6246607;22;20011;-78
2021/11/13 05:52:45;;;;;;;60.10;33.17;;;9.50;99.90;;;;;;6220111;22;20082;-77
2021/11/13 05:55:12;;;;;;;51.83;31.55;;;9.40;99.90;;;;;;6246349;22;20052;-77
2021/11/13 05:57:39;;;;;;;57.22;32.55;;;9.40;99.90;;;;;;6246514;22;20041;-78
2021/11/13 06:00:08;;;;;;;60.15;33.55;;;9.40;99.90;;;;;;6245474;22;20019;-77
2021/11/13 06:02:33;;;;;;;61.45;33.28;;;9.40;99.90;;;;;;6245627;22;20034;-77
2021/11/13 06:04:59;;;;;;;59.47;33.28;;;9.40;99.90;;;;;;6246138;22;20023;-77
2021/11/13 06:07:25;;;;;;;63.28;34.50;;;9.50;99.90;;;;;;6246796;22;20047;-77
2021/11/13 06:09:50;;;;;;;59.95;33.80;;;9.50;99.90;;;;;;6246154;22;20028;-77
2021/11/13 06:12:16;;;;;;;59.70;34.17;;;9.50;99.90;;;;;;6246301;22;20389;-77
2021/11/13 06:14:42;;;;;;;62.85;34.22;;;9.50;99.90;;;;;;6245653;22;20038;-78
2021/11/13 06:17:07;;;;;;;65.80;36.60;;;9.50;99.90;;;;;;6245549;22;20012;-78
2021/11/13 06:19:33;;;;;;;60.00;33.55;;;9.50;99.90;;;;;;6246878;22;20046;-77
2021/11/13 06:21:59;;;;;;;63.20;33.90;;;9.50;99.90;;;;;;6246702;22;20019;-77
2021/11/13 06:24:24;;;;;;;62.10;34.38;;;9.50;99.90;;;;;;6221209;22;20007;-78
2021/11/13 06:30:17;;;;;;;54.75;33.13;;;9.50;99.90;;;;;;6248225;22;20062;-77
2021/11/13 06:32:44;;;;;;;70.22;35.80;;;9.50;99.90;;;;;;6248680;22;20027;-77
2021/11/13 06:35:12;;;;;;;67.20;35.13;;;9.50;99.90;;;;;;6261276;22;20046;-77
2021/11/13 06:37:39;;;;;;;70.88;35.42;;;9.50;99.90;;;;;;6238759;22;20091;-76
2021/11/13 06:40:06;;;;;;;59.95;34.58;;;9.50;99.90;;;;;;6261857;22;20015;-77
2021/11/13 06:42:35;;;;;;;59.95;35.03;;;9.50;99.90;;;;;;6220858;22;20187;-77
2021/11/13 06:45:02;;;;;;;54.75;33.42;;;9.50;99.90;;;;;;6272842;22;20455;-77
2021/11/13 06:47:28;;;;;;;60.65;32.88;;;9.50;99.90;;;;;;6246440;22;20011;-78
2021/11/13 06:49:54;;;;;;;64.50;35.85;;;9.50;99.90;;;;;;6247260;22;20022;-80
2021/11/13 06:52:19;;;;;;;62.97;34.17;;;9.50;99.90;;;;;;6246422;22;20035;-76
2021/11/13 06:54:45;;;;;;;55.10;32.50;;;9.60;99.90;;;;;;6246827;22;20011;-77
2021/11/13 06:57:10;;;;;;;64.40;35.00;;;9.50;99.90;;;;;;6274345;22;20004;-77
2021/11/13 06:59:36;;;;;;;56.08;32.95;;;9.50;99.90;;;;;;6220435;22;20284;-77
2021/11/13 07:02:02;;;;;;;59.90;33.95;;;9.60;99.90;;;;;;6221295;22;20105;-76
2021/11/13 07:04:28;;;;;;;65.78;33.97;;;9.60;99.90;;;;;;6247023;22;20013;-76
2021/11/13 07:06:53;;;;;;;51.97;32.40;;;9.60;99.90;;;;;;6246561;22;20351;-77
2021/11/13 07:09:19;;;;;;;61.50;33.67;;;9.60;99.90;;;;;;6268391;22;20081;-77
2021/11/13 07:11:45;;;;;;;51.28;31.73;;;9.60;99.90;;;;;;6271989;22;20043;-77
2021/11/13 07:14:10;;;;;;;60.55;33.65;;;9.60;99.90;;;;;;6273960;22;20004;-77
2021/11/13 07:16:36;;;;;;;58.90;33.50;;;9.60;99.90;;;;;;6271543;22;20015;-77
2021/11/13 07:19:03;;;;;;;54.10;33.50;;;9.60;99.90;;;;;;6272109;22;20022;-77
2021/11/13 07:21:29;;;;;;;49.95;31.42;;;9.60;99.90;;;;;;6246683;22;20456;-77
2021/11/13 07:23:55;;;;;;;49.30;30.95;;;9.60;99.90;;;;;;6247164;22;20019;-77
2021/11/13 07:26:21;;;;;;;56.88;31.92;;;9.70;99.90;;;;;;6271999;22;20016;-77
2021/11/13 07:28:50;;;;;;;59.90;32.42;;;9.60;99.90;;;;;;6272008;22;20054;-77
2021/11/13 07:31:18;;;;;;;51.85;31.50;;;9.70;99.90;;;;;;6246614;22;20010;-77
2021/11/13 07:33:49;;;;;;;62.10;33.45;;;9.70;99.90;;;;;;6246161;22;20031;-77
2021/11/13 07:36:15;;;;;;;53.15;32.35;;;9.70;99.90;;;;;;6272418;22;20015;-77
2021/11/13 07:38:40;;;;;;;52.22;31.88;;;9.60;99.90;;;;;;6272501;22;20049;-77
2021/11/13 07:41:09;;;;;;;52.97;32.10;;;9.70;99.90;;;;;;6246310;22;20025;-76
2021/11/13 07:43:35;;;;;;;51.88;31.17;;;9.70;99.90;;;;;;6271669;22;20041;-76
2021/11/13 07:46:01;;;;;;;44.20;28.58;;;9.70;99.90;;;;;;6271629;22;20015;-76
2021/11/13 07:48:26;;;;;;;43.95;28.83;;;9.70;99.90;;;;;;6269909;22;20020;-77
2021/11/13 07:50:52;;;;;;;52.92;30.23;;;9.70;99.90;;;;;;6271238;22;20499;-77
2021/11/13 07:53:18;;;;;;;47.95;30.77;;;9.70;99.90;;;;;;6271477;22;20038;-77
2021/11/13 07:55:43;;;;;;;44.00;28.08;;;9.70;99.90;;;;;;6270519;22;20023;-77
2021/11/13 07:58:13;;;;;;;42.42;27.65;;;9.70;99.90;;;;;;6271077;22;20027;-79
2021/11/13 08:00:40;;;;;;;42.90;28.48;;;9.80;99.90;;;;;;6272138;22;20054;-76
2021/11/13 08:03:06;;;;;;;47.80;29.85;;;9.80;99.90;;;;;;6270844;22;20019;-77
2021/11/13 08:05:31;;;;;;;53.10;30.08;;;9.80;99.90;;;;;;6244850;22;20018;-79
2021/11/13 08:07:57;;;;;;;46.40;29.20;;;9.80;99.90;;;;;;6271872;22;20022;-78
2021/11/13 08:10:23;;;;;;;46.33;29.02;;;9.80;99.90;;;;;;6244868;22;20019;-78
2021/11/13 08:12:49;;;;;;;46.35;28.65;;;9.80;99.90;;;;;;6244812;22;20391;-78
2021/11/13 08:15:17;;;;;;;52.65;30.13;;;9.80;99.90;;;;;;6244935;22;20100;-78
2021/11/13 08:17:43;;;;;;;45.95;28.63;;;9.80;99.90;;;;;;6270669;22;20098;-78
2021/11/13 08:20:10;;;;;;;39.97;27.63;;;9.90;99.90;;;;;;6221640;22;20062;-78
2021/11/13 08:22:36;;;;;;;52.00;28.98;;;9.90;99.90;;;;;;6263201;22;20015;-78
2021/11/13 08:25:04;;;;;;;50.13;28.80;;;9.90;99.90;;;;;;6244993;22;20112;-78
2021/11/13 08:27:30;;;;;;;47.95;27.25;;;9.90;99.90;;;;;;6269959;22;20382;-79
2021/11/13 08:29:56;;;;;;;36.42;25.95;;;10.00;99.90;;;;;;6270019;22;20012;-76
2021/11/13 08:32:21;;;;;;;37.42;26.13;;;10.10;99.90;;;;;;6267677;22;20007;-77
2021/11/13 08:34:47;;;;;;;43.20;28.35;;;10.10;99.90;;;;;;6271075;22;20018;-77
2021/11/13 08:37:13;;;;;;;39.13;26.52;;;10.20;99.90;;;;;;6260808;22;20026;-77
2021/11/13 08:39:38;;;;;;;36.33;26.42;;;10.20;99.90;;;;;;6245012;22;20016;-77
2021/11/13 08:42:16;;;;;;;43.00;26.40;;;10.20;99.90;;;;;;6276084;22;20008;-77
2021/11/13 08:44:46;;;;;;;46.50;28.42;;;10.20;99.90;;;;;;6248665;22;20027;-77
2021/11/13 08:47:14;;;;;;;44.35;27.38;;;10.20;99.90;;;;;;6221345;22;20012;-77
2021/11/13 08:49:42;;;;;;;46.15;27.92;;;10.20;99.90;;;;;;6222437;22;20031;-77
2021/11/13 08:52:10;;;;;;;45.45;26.92;;;10.10;99.90;;;;;;6247615;22;20008;-77
2021/11/13 08:54:36;;;;;;;46.20;27.23;;;10.20;99.90;;;;;;6221756;22;20046;-78
2021/11/13 08:57:03;;;;;;;37.45;24.60;;;10.20;99.90;;;;;;6222976;22;20035;-78
2021/11/13 08:59:30;;;;;;;40.35;26.88;;;10.20;99.90;;;;;;6247587;22;20062;-78
2021/11/13 09:01:56;;;;;;;40.67;27.85;;;10.30;99.90;;;;;;6248819;22;20493;-79
2021/11/13 09:04:22;;;;;;;46.92;27.25;;;10.30;99.90;;;;;;6247927;22;20094;-76
2021/11/13 09:06:48;;;;;;;45.13;28.58;;;10.30;99.90;;;;;;6248191;22;20132;-77
2021/11/13 09:09:14;;;;;;;40.88;27.20;;;10.20;99.90;;;;;;6276147;22;20015;-78
2021/11/13 09:11:42;;;;;;;42.20;27.88;;;10.40;99.90;;;;;;6222870;22;20807;-76
2021/11/13 09:14:14;;;;;;;44.00;28.42;;;10.30;99.90;;;;;;6247976;22;20015;-77
2021/11/13 09:16:40;;;;;;;42.15;27.27;;;10.30;99.90;;;;;;6221570;22;20360;-79
2021/11/13 09:19:07;;;;;;;43.05;26.55;;;10.40;99.90;;;;;;6247051;22;20046;-77
2021/11/13 09:21:34;;;;;;;42.58;27.30;;;10.40;99.90;;;;;;6247290;22;20055;-79
2021/11/13 09:24:01;;;;;;;40.95;27.42;;;10.40;99.90;;;;;;6221170;22;20011;-79
2021/11/13 09:26:27;;;;;;;38.78;26.83;;;10.50;99.90;;;;;;6273813;22;20034;-79
2021/11/13 09:28:55;;;;;;;38.85;26.45;;;10.50;99.90;;;;;;6246103;22;20085;-79
2021/11/13 09:31:20;;;;;;;40.08;25.40;;;10.50;99.90;;;;;;6221237;22;20290;-78
2021/11/13 09:33:46;;;;;;;39.53;26.85;;;10.60;99.90;;;;;;6222138;22;20458;-80
2021/11/13 09:36:12;;;;;;;40.30;25.92;;;10.50;99.90;;;;;;6275178;22;20058;-80
2021/11/13 09:38:43;;;;;;;38.85;26.10;;;10.60;99.90;;;;;;6248204;22;20027;-79
2021/11/13 09:41:10;;;;;;;36.40;25.48;;;10.70;99.90;;;;;;6247561;22;20030;-79
2021/11/13 09:43:38;;;;;;;39.00;25.30;;;10.60;99.90;;;;;;6247306;22;20016;-79
2021/11/13 09:46:06;;;;;;;38.53;24.90;;;10.70;99.90;;;;;;6246195;22;20016;-75
2021/11/13 09:48:33;;;;;;;34.47;23.75;;;10.70;99.90;;;;;;6247957;22;20416;-75
2021/11/13 09:50:59;;;;;;;36.58;25.33;;;10.70;99.90;;;;;;6246895;22;20332;-77
2021/11/13 09:53:26;;;;;;;38.47;24.95;;;10.60;99.90;;;;;;6247576;22;20070;-77
2021/11/13 09:55:53;;;;;;;35.13;24.40;;;10.70;99.90;;;;;;6248859;22;20012;-77
2021/11/13 09:58:20;;;;;;;36.88;24.98;;;10.70;99.90;;;;;;6247250;22;20082;-78
2021/11/13 10:00:46;;;;;;;36.35;24.92;;;10.70;99.90;;;;;;6246669;22;20462;-78
2021/11/13 10:03:19;;;;;;;37.50;24.63;;;10.70;99.90;;;;;;6246134;22;20012;-76
2021/11/13 10:05:49;;;;;;;35.33;24.42;;;10.80;99.90;;;;;;6221728;22;20406;-75
2021/11/13 10:08:14;;;;;;;36.40;25.25;;;10.70;99.90;;;;;;6227001;22;20475;-76
2021/11/13 10:10:42;;;;;;;36.40;25.08;;;10.70;99.90;;;;;;6274326;22;20051;-76
2021/11/13 10:13:28;;;;;;;37.03;25.58;;;10.80;99.90;;;;;;6248485;22;20015;-75
2021/11/13 10:15:57;;;;;;;43.38;26.30;;;10.70;99.90;;;;;;6271973;22;20027;-77
2021/11/13 10:18:29;;;;;;;38.40;25.35;;;10.70;99.90;;;;;;6270400;22;20019;-78
2021/11/13 10:20:58;;;;;;;40.70;25.65;;;10.80;99.90;;;;;;6271337;22;20070;-78
2021/11/13 10:23:26;;;;;;;42.35;26.25;;;10.80;99.90;;;;;;6273374;22;20023;-77
2021/11/13 10:26:00;;;;;;;40.50;26.55;;;10.90;99.90;;;;;;6271777;22;20320;-78
2021/11/13 10:28:26;;;;;;;37.45;25.27;;;10.90;99.90;;;;;;6270526;22;20054;-79
2021/11/13 10:31:17;;;;;;;32.42;23.63;;;10.90;99.90;;;;;;6272023;22;20051;-78
2021/11/13 10:33:44;;;;;;;34.38;25.05;;;11.00;99.90;;;;;;6273220;22;20085;-79
2021/11/13 10:36:11;;;;;;;33.30;23.08;;;11.00;99.90;;;;;;6273564;22;20094;-79
2021/11/13 10:38:38;;;;;;;39.50;26.30;;;11.00;99.90;;;;;;6275837;22;20061;-81
2021/11/13 10:41:07;;;;;;;37.25;24.58;;;11.00;99.90;;;;;;6272523;22;20107;-80
2021/11/13 10:43:42;;;;;;;39.50;27.05;;;11.10;99.90;;;;;;6276019;22;20012;-81
2021/11/13 10:46:12;;;;;;;;;;;11.10;99.90;;;;;;6273274;22;20427;-81
2021/11/13 10:48:42;;;;;;;39.47;27.88;;;11.30;99.90;;;;;;6272806;22;19919;-79
2021/11/13 10:51:14;;;;;;;28.95;22.17;;;11.30;99.90;;;;;;6275434;22;20008;-80
2021/11/13 10:53:41;;;;;;;30.83;22.60;;;11.30;99.90;;;;;;6273375;22;20019;-80
2021/11/13 10:56:11;;;;;;;34.35;23.02;;;11.30;99.90;;;;;;6247569;22;20095;-79
2021/11/13 10:58:43;;;;;;;33.72;23.08;;;11.40;99.90;;;;;;6273702;22;20020;-80
2021/11/13 11:01:34;;;;;;;32.35;22.65;;;11.30;99.90;;;;;;6272887;22;20011;-80
2021/11/13 11:04:06;;;;;;;30.33;22.35;;;11.30;99.90;;;;;;6232217;22;20023;-80
2021/11/13 11:06:38;;;;;;;27.38;21.63;;;11.50;99.90;;;;;;6246869;22;20015;-80
2021/11/13 11:09:32;;;;;;;30.38;22.15;;;11.60;99.90;;;;;;6246468;22;20016;-80
2021/11/13 11:12:01;;;;;;;29.25;20.98;;;11.60;99.90;;;;;;6221326;22;20022;-82
2021/11/13 11:14:30;;;;;;;31.73;21.65;;;11.70;99.90;;;;;;6246344;22;20023;-78
2021/11/13 11:17:00;;;;;;;28.08;21.38;;;11.70;99.90;;;;;;6246922;22;20007;-81
2021/11/13 11:19:30;;;;;;;31.38;22.15;;;11.80;99.90;;;;;;6247769;22;20064;-81
2021/11/13 11:21:59;;;;;;;28.48;21.15;;;11.80;99.90;;;;;;6247492;22;20258;-80
2021/11/13 11:24:36;;;;;;;28.88;20.95;;;11.90;99.90;;;;;;6247305;22;20400;-80
2021/11/13 11:27:12;;;;;;;28.50;21.33;;;11.90;99.90;;;;;;6222191;22;20019;-81
2021/11/13 11:29:45;;;;;;;25.50;19.17;;;11.90;99.90;;;;;;6221304;22;20020;-81
2021/11/13 11:32:14;;;;;;;28.08;20.35;;;11.80;99.90;;;;;;6271726;22;20018;-80
2021/11/13 11:34:43;;;;;;;29.90;20.05;;;11.80;99.90;;;;;;6246018;22;20047;-80
2021/11/13 11:37:40;;;;;;;28.73;20.30;;;11.80;99.90;;;;;;6270678;22;20012;-79
2021/11/13 11:40:09;;;;;;;33.38;20.10;;;11.80;99.90;;;;;;6241558;22;20507;-79
2021/11/13 11:42:35;;;;;;;26.08;19.40;;;11.70;99.90;;;;;;6245624;22;20406;-76
2021/11/13 11:45:01;;;;;;;26.35;19.40;;;11.80;99.90;;;;;;6246414;22;20074;-80
2021/11/13 11:47:29;;;;;;;26.15;19.60;;;11.80;99.90;;;;;;6270447;22;20026;-80
2021/11/13 11:49:57;;;;;;;29.70;19.85;;;11.80;99.90;;;;;;6246135;22;20046;-79
2021/11/13 11:52:26;;;;;;;26.95;19.52;;;11.90;99.90;;;;;;6246077;22;20022;-80
2021/11/13 11:54:54;;;;;;;30.20;20.02;;;11.90;99.90;;;;;;6219041;22;20016;-78
2021/11/13 12:00:32;;;;;;;27.88;19.70;;;12.20;99.90;;;;;;6280667;22;20038;-79
2021/11/13 12:03:02;;;;;;;25.88;18.95;;;12.20;99.90;;;;;;6230824;22;20077;-81
2021/11/13 12:05:30;;;;;;;26.50;19.15;;;12.20;99.90;;;;;;6230429;22;20019;-79
2021/11/13 12:08:13;;;;;;;25.50;18.25;;;12.30;99.90;;;;;;6283541;22;20016;-79
2021/11/13 12:10:39;;;;;;;24.75;17.85;;;12.40;99.90;;;;;;6229863;22;20020;-76
2021/11/13 12:13:07;;;;;;;27.08;17.20;;;12.40;99.90;;;;;;6251355;22;20073;-78
2021/11/13 12:15:41;;;;;;;24.08;17.35;;;12.40;99.90;;;;;;6245499;22;20012;-81
2021/11/13 12:18:19;;;;;;;20.63;16.50;;;12.50;99.90;;;;;;6275189;22;20380;-81
2021/11/13 12:20:47;;;;;;;30.75;15.98;;;12.50;99.90;;;;;;6272834;22;20024;-79
2021/11/13 12:23:18;;;;;;;25.02;13.32;;;12.60;99.90;;;;;;6248646;22;20015;-78
2021/11/13 12:26:13;;;;;;;25.25;16.75;;;12.80;99.90;;;;;;6247902;22;20034;-78
2021/11/13 12:28:45;;;;;;;22.17;16.30;;;12.90;99.90;;;;;;6222544;22;20012;-84
2021/11/13 12:31:20;;;;;;;24.85;16.95;;;12.90;99.90;;;;;;6246714;22;20020;-81
2021/11/13 12:33:48;;;;;;;22.88;15.50;;;12.90;99.90;;;;;;6246222;22;20024;-81
2021/11/13 12:36:18;;;;;;;22.15;16.00;;;12.90;99.90;;;;;;6222529;22;20012;-79
2021/11/13 12:38:54;;;;;;;21.42;16.02;;;13.00;99.90;;;;;;6249080;22;20077;-81
2021/11/13 12:41:57;;;;;;;20.98;14.88;;;13.20;99.90;;;;;;6249096;22;20012;-78